Time;durP1;ratioP1;P1;durP2;ratioP2;P2;SDS_P1;SDS_P2;PMS_P1;PMS_P2;Temp;Humidity;BMP_temperature;BMP_pressure;BME280_temperature;BME280_humidity;BME280_pressure;Samples;Min_cycle;Max_cycle;Signal;HPM_P1;HPM_P2
2022/04/28 00:01:44;;;;;;;0.63;0.63;;;;;;;;;;5047488;28;20296;-56
2022/04/28 00:04:31;;;;;;;0.97;0.97;;;;;;;;;;5047712;28;20271;-56
2022/04/28 00:07:19;;;;;;;0.50;0.50;;;;;;;;;;5049336;28;20905;-55
2022/04/28 00:10:08;;;;;;;0.70;0.70;;;;;;;;;;5048789;28;20619;-56
2022/04/28 00:12:56;;;;;;;0.80;0.80;;;;;;;;;;5048822;28;20233;-56
2022/04/28 00:15:44;;;;;;;0.73;0.73;;;;;;;;;;5047813;28;20501;-55
2022/04/28 00:18:31;;;;;;;0.60;0.60;;;;;;;;;;5047474;28;20206;-56
2022/04/28 00:21:18;;;;;;;0.70;0.70;;;;;;;;;;5049793;28;21064;-56
2022/04/28 00:24:07;;;;;;;0.50;0.50;;;;;;;;;;5046263;28;20256;-56
2022/04/28 00:26:54;;;;;;;0.60;0.60;;;;;;;;;;5049956;28;20233;-57
2022/04/28 00:29:41;;;;;;;1.30;0.70;;;;;;;;;;5048426;28;20296;-56
2022/04/28 00:32:28;;;;;;;1.43;0.63;;;;;;;;;;5050200;28;20278;-55
2022/04/28 00:35:15;;;;;;;1.47;0.77;;;;;;;;;;5047137;28;20311;-56
2022/04/28 00:38:02;;;;;;;0.93;0.90;;;;;;;;;;5054325;28;20210;-56
2022/04/28 00:40:50;;;;;;;0.60;0.60;;;;;;;;;;5047129;28;20266;-56
2022/04/28 00:43:48;;;;;;;0.80;0.80;;;;;;;;;;5049814;28;20297;-56
2022/04/28 00:46:35;;;;;;;0.80;0.80;;;;;;;;;;5045919;28;20426;-55
2022/04/28 00:52:28;;;;;;;0.60;0.60;;;;;;;;;;5052336;28;20228;-56
2022/04/28 00:55:15;;;;;;;0.93;0.93;;;;;;;;;;5051489;28;20202;-56
2022/04/28 00:58:03;;;;;;;0.80;0.80;;;;;;;;;;5049424;28;20243;-56
2022/04/28 01:00:53;;;;;;;0.70;0.70;;;;;;;;;;5052905;28;20288;-60
2022/04/28 01:03:40;;;;;;;1.07;1.03;;;;;;;;;;5061764;28;20263;-60
2022/04/28 01:06:27;;;;;;;0.60;0.60;;;;;;;;;;5052520;28;20235;-60
2022/04/28 01:09:16;;;;;;;0.90;0.90;;;;;;;;;;5052249;28;20292;-61
2022/04/28 01:12:06;;;;;;;0.70;0.70;;;;;;;;;;5052382;28;20688;-61
2022/04/28 01:14:55;;;;;;;0.93;0.90;;;;;;;;;;5056731;28;20312;-61
2022/04/28 01:17:41;;;;;;;1.00;0.90;;;;;;;;;;5050719;28;20245;-61
2022/04/28 01:20:28;;;;;;;0.60;0.60;;;;;;;;;;5051509;28;20311;-61
2022/04/28 01:23:18;;;;;;;0.60;0.60;;;;;;;;;;5054991;28;20711;-60
2022/04/28 01:26:05;;;;;;;0.60;0.60;;;;;;;;;;5051774;28;20220;-61
2022/04/28 01:28:52;;;;;;;0.70;0.70;;;;;;;;;;5049521;28;20332;-61
2022/04/28 01:31:39;;;;;;;0.87;0.87;;;;;;;;;;5054297;28;20198;-61
2022/04/28 01:34:26;;;;;;;0.60;0.60;;;;;;;;;;5055715;28;20231;-61
2022/04/28 01:37:13;;;;;;;0.70;0.70;;;;;;;;;;5054699;28;20237;-62
2022/04/28 01:40:01;;;;;;;1.13;1.00;;;;;;;;;;5053554;28;20607;-60
2022/04/28 01:42:49;;;;;;;0.60;0.60;;;;;;;;;;5052681;28;20205;-61
2022/04/28 01:45:36;;;;;;;0.53;0.50;;;;;;;;;;5057625;28;20732;-61
2022/04/28 01:48:22;;;;;;;2.10;0.80;;;;;;;;;;5054327;28;20314;-61
2022/04/28 01:57:19;;;;;;;0.90;0.90;;;;;;;;;;5050868;28;20203;-61
2022/04/28 02:00:09;;;;;;;0.70;0.70;;;;;;;;;;5052535;28;20208;-61
2022/04/28 02:02:56;;;;;;;0.60;0.60;;;;;;;;;;5052730;28;20290;-61
2022/04/28 02:05:43;;;;;;;0.87;0.87;;;;;;;;;;5050797;28;20389;-61
2022/04/28 02:08:30;;;;;;;1.83;0.90;;;;;;;;;;5050374;28;20234;-61
2022/04/28 02:11:17;;;;;;;0.70;0.70;;;;;;;;;;5049829;28;20657;-61
2022/04/28 02:14:06;;;;;;;0.93;0.93;;;;;;;;;;5054481;28;20217;-61
2022/04/28 02:16:53;;;;;;;0.83;0.63;;;;;;;;;;5051776;28;20221;-61
2022/04/28 02:19:40;;;;;;;0.67;0.67;;;;;;;;;;5050427;28;20271;-61
2022/04/28 02:22:27;;;;;;;1.03;0.70;;;;;;;;;;5050548;28;20692;-60
2022/04/28 02:25:13;;;;;;;0.80;0.80;;;;;;;;;;5050404;28;20237;-61
2022/04/28 02:28:00;;;;;;;1.43;0.83;;;;;;;;;;5049632;28;20261;-60
2022/04/28 02:30:49;;;;;;;0.90;0.80;;;;;;;;;;5053225;28;20215;-60
2022/04/28 02:33:36;;;;;;;0.70;0.70;;;;;;;;;;5051462;28;20812;-61
2022/04/28 02:36:24;;;;;;;0.70;0.70;;;;;;;;;;5052053;28;20246;-60
2022/04/28 02:39:12;;;;;;;1.10;1.00;;;;;;;;;;5050960;28;20292;-60
2022/04/28 02:41:59;;;;;;;0.80;0.80;;;;;;;;;;5053752;28;20208;-61
2022/04/28 02:44:46;;;;;;;1.23;0.80;;;;;;;;;;5049664;28;20304;-60
2022/04/28 02:47:35;;;;;;;1.97;0.67;;;;;;;;;;5054389;28;20323;-61
2022/04/28 02:50:22;;;;;;;0.80;0.80;;;;;;;;;;5053980;28;20209;-61
2022/04/28 02:53:09;;;;;;;1.13;0.80;;;;;;;;;;5049689;28;20220;-61
2022/04/28 02:55:56;;;;;;;0.90;0.90;;;;;;;;;;5056296;28;20742;-61
2022/04/28 02:58:43;;;;;;;0.80;0.80;;;;;;;;;;5050728;28;20206;-61
2022/04/28 03:01:30;;;;;;;2.63;0.83;;;;;;;;;;5054959;28;20211;-61
2022/04/28 03:04:18;;;;;;;0.77;0.70;;;;;;;;;;5051593;28;20243;-61
2022/04/28 03:13:18;;;;;;;1.00;1.00;;;;;;;;;;5051831;28;20208;-61
2022/04/28 03:16:06;;;;;;;0.80;0.80;;;;;;;;;;5048390;28;20339;-61
2022/04/28 03:18:53;;;;;;;1.23;0.93;;;;;;;;;;5051242;28;20222;-61
2022/04/28 03:21:42;;;;;;;1.80;1.00;;;;;;;;;;5049187;28;20203;-61
2022/04/28 03:24:29;;;;;;;0.70;0.70;;;;;;;;;;5049443;28;20582;-61
2022/04/28 03:27:16;;;;;;;1.20;1.10;;;;;;;;;;5053098;28;20256;-60
2022/04/28 03:30:04;;;;;;;0.87;0.70;;;;;;;;;;5053800;28;20208;-61
2022/04/28 03:32:51;;;;;;;1.13;1.03;;;;;;;;;;5049101;28;20269;-61
2022/04/28 03:35:38;;;;;;;0.70;0.70;;;;;;;;;;5049670;28;20299;-61
2022/04/28 03:38:26;;;;;;;0.87;0.87;;;;;;;;;;5052783;28;20297;-61
2022/04/28 03:41:13;;;;;;;1.30;0.97;;;;;;;;;;5054757;28;20307;-61
2022/04/28 03:44:00;;;;;;;0.97;0.97;;;;;;;;;;5053194;28;20331;-61
2022/04/28 03:46:47;;;;;;;1.47;1.00;;;;;;;;;;5049459;28;20826;-61
2022/04/28 03:49:34;;;;;;;2.40;1.13;;;;;;;;;;5049031;28;20290;-61
2022/04/28 03:52:21;;;;;;;0.80;0.80;;;;;;;;;;5051347;28;20691;-61
2022/04/28 03:55:10;;;;;;;1.20;1.10;;;;;;;;;;5049936;28;20227;-61
2022/04/28 03:57:57;;;;;;;1.07;0.90;;;;;;;;;;5050816;28;20688;-61
2022/04/28 04:00:48;;;;;;;1.20;0.90;;;;;;;;;;5050158;28;20295;-61
2022/04/28 04:03:35;;;;;;;0.80;0.80;;;;;;;;;;5048175;28;20210;-61
2022/04/28 04:06:22;;;;;;;1.77;1.00;;;;;;;;;;5052909;28;20707;-61
2022/04/28 04:09:09;;;;;;;1.20;1.10;;;;;;;;;;5051148;28;20382;-61
2022/04/28 04:11:57;;;;;;;1.03;0.83;;;;;;;;;;5049507;28;20670;-61
2022/04/28 04:14:44;;;;;;;0.87;0.87;;;;;;;;;;5049618;28;20633;-60
2022/04/28 04:17:31;;;;;;;1.00;0.90;;;;;;;;;;5048009;28;20309;-61
2022/04/28 04:20:18;;;;;;;1.20;1.10;;;;;;;;;;5052773;28;20290;-61
2022/04/28 04:23:05;;;;;;;0.90;0.90;;;;;;;;;;5050194;28;20273;-61
2022/04/28 04:25:52;;;;;;;1.97;0.90;;;;;;;;;;5050839;28;20213;-61
2022/04/28 04:28:41;;;;;;;1.00;0.90;;;;;;;;;;5047925;28;20290;-60
2022/04/28 04:34:32;;;;;;;0.90;0.90;;;;;;;;;;5052301;28;20267;-61
2022/04/28 04:37:20;;;;;;;0.77;0.77;;;;;;;;;;5053251;28;20684;-61
2022/04/28 04:40:08;;;;;;;1.07;1.03;;;;;;;;;;5051421;28;20289;-60
2022/04/28 04:42:55;;;;;;;0.90;0.90;;;;;;;;;;5051450;28;20213;-61
2022/04/28 04:45:43;;;;;;;0.83;0.83;;;;;;;;;;5051941;28;20253;-61
2022/04/28 04:48:31;;;;;;;1.33;0.83;;;;;;;;;;5050207;28;20765;-61
2022/04/28 04:51:18;;;;;;;1.07;0.83;;;;;;;;;;5052647;28;20285;-61
2022/04/28 04:54:05;;;;;;;1.63;1.30;;;;;;;;;;5050943;28;20308;-61
2022/04/28 04:56:52;;;;;;;2.20;0.90;;;;;;;;;;5055730;28;20692;-61
2022/04/28 04:59:39;;;;;;;0.87;0.87;;;;;;;;;;5050575;28;20284;-61
2022/04/28 05:02:27;;;;;;;1.03;1.00;;;;;;;;;;5049156;28;20255;-61
2022/04/28 05:05:14;;;;;;;0.90;0.90;;;;;;;;;;5052136;28;20333;-61
2022/04/28 05:08:01;;;;;;;1.10;1.00;;;;;;;;;;5050939;28;20731;-60
2022/04/28 05:10:48;;;;;;;0.93;0.90;;;;;;;;;;5053283;28;20233;-61
2022/04/28 05:13:35;;;;;;;1.30;1.20;;;;;;;;;;5050808;28;20243;-61
2022/04/28 05:16:22;;;;;;;1.30;1.20;;;;;;;;;;5054760;28;20211;-61
2022/04/28 05:19:10;;;;;;;1.20;1.10;;;;;;;;;;5054253;28;20729;-60
2022/04/28 05:21:57;;;;;;;0.73;0.73;;;;;;;;;;5059368;28;20251;-61
2022/04/28 05:24:44;;;;;;;1.17;1.17;;;;;;;;;;5052924;28;20630;-61
2022/04/28 05:27:31;;;;;;;1.10;1.10;;;;;;;;;;5051375;28;20278;-61
2022/04/28 05:30:18;;;;;;;1.37;1.27;;;;;;;;;;5054565;28;20222;-61
2022/04/28 05:33:05;;;;;;;0.90;0.90;;;;;;;;;;5051733;28;20211;-61
2022/04/28 05:35:54;;;;;;;0.70;0.67;;;;;;;;;;5053309;28;20248;-61
2022/04/28 05:38:41;;;;;;;1.70;1.13;;;;;;;;;;5054214;28;20257;-61
2022/04/28 05:41:29;;;;;;;1.30;1.30;;;;;;;;;;5050732;28;20212;-61
2022/04/28 05:47:20;;;;;;;1.30;1.20;;;;;;;;;;5050008;28;20237;-61
2022/04/28 05:50:09;;;;;;;1.00;1.00;;;;;;;;;;5051169;28;20305;-61
2022/04/28 05:52:57;;;;;;;1.47;1.10;;;;;;;;;;5054684;28;20233;-61
2022/04/28 05:55:45;;;;;;;1.23;1.13;;;;;;;;;;5052588;28;20222;-61
2022/04/28 05:58:33;;;;;;;1.43;1.07;;;;;;;;;;5051195;28;20692;-61
2022/04/28 06:01:20;;;;;;;1.43;1.33;;;;;;;;;;5044975;28;20213;-61
2022/04/28 06:04:07;;;;;;;1.30;1.20;;;;;;;;;;5053948;28;20631;-60
2022/04/28 06:06:54;;;;;;;1.57;1.40;;;;;;;;;;5053274;28;20292;-61
2022/04/28 06:09:43;;;;;;;1.40;1.30;;;;;;;;;;5049763;28;20309;-61
2022/04/28 06:12:30;;;;;;;1.47;1.30;;;;;;;;;;5049784;28;20213;-61
2022/04/28 06:15:17;;;;;;;1.20;1.10;;;;;;;;;;5054061;28;20239;-61
2022/04/28 06:18:04;;;;;;;2.33;1.23;;;;;;;;;;5050374;28;20247;-61
2022/04/28 06:20:51;;;;;;;1.70;1.10;;;;;;;;;;5048516;28;20213;-62
2022/04/28 06:23:38;;;;;;;1.40;1.30;;;;;;;;;;5053446;28;20788;-61
2022/04/28 06:26:26;;;;;;;2.60;1.47;;;;;;;;;;5051804;28;20691;-62
2022/04/28 06:29:13;;;;;;;1.60;1.50;;;;;;;;;;5050175;28;20228;-62
2022/04/28 06:32:00;;;;;;;2.73;1.30;;;;;;;;;;5050386;28;20719;-61
2022/04/28 06:34:47;;;;;;;1.50;1.40;;;;;;;;;;5049443;28;20759;-61
2022/04/28 06:37:34;;;;;;;1.90;1.30;;;;;;;;;;5051516;28;20700;-61
2022/04/28 06:40:21;;;;;;;1.50;1.40;;;;;;;;;;5048369;28;20297;-61
2022/04/28 06:43:09;;;;;;;1.97;1.40;;;;;;;;;;5048980;28;20340;-61
2022/04/28 06:46:15;;;;;;;2.10;1.27;;;;;;;;;;5048240;28;20343;-61
2022/04/28 06:49:02;;;;;;;2.50;1.40;;;;;;;;;;5049453;28;20232;-60
2022/04/28 06:51:48;;;;;;;2.70;1.43;;;;;;;;;;5048705;28;20270;-61
2022/04/28 06:54:35;;;;;;;1.30;1.20;;;;;;;;;;5050230;28;20243;-61
2022/04/28 06:57:22;;;;;;;1.47;1.30;;;;;;;;;;5052049;28;20228;-60
2022/04/28 07:00:12;;;;;;;1.83;1.73;;;;;;;;;;5049181;28;20238;-62
2022/04/28 07:02:59;;;;;;;1.80;1.60;;;;;;;;;;5052932;28;20307;-61
2022/04/28 07:05:46;;;;;;;1.27;1.20;;;;;;;;;;5049721;28;20679;-60
2022/04/28 07:08:33;;;;;;;1.65;1.52;;;;;;;;;;5048983;28;20263;-60
2022/04/28 07:11:20;;;;;;;1.33;1.33;;;;;;;;;;5048207;28;20269;-61
2022/04/28 07:14:07;;;;;;;1.55;1.45;;;;;;;;;;5059955;28;20801;-59
2022/04/28 07:16:55;;;;;;;1.83;1.30;;;;;;;;;;5050552;28;20214;-59
2022/04/28 07:19:42;;;;;;;1.90;1.73;;;;;;;;;;5049417;28;20298;-60
2022/04/28 07:22:29;;;;;;;1.60;1.50;;;;;;;;;;5048765;28;20733;-59
2022/04/28 07:25:16;;;;;;;1.85;1.75;;;;;;;;;;5056316;28;20280;-60
2022/04/28 07:28:03;;;;;;;2.00;1.80;;;;;;;;;;5048675;28;20692;-60
2022/04/28 07:30:50;;;;;;;1.98;1.70;;;;;;;;;;5048313;28;20238;-60
2022/04/28 07:33:38;;;;;;;2.05;1.85;;;;;;;;;;5048417;28;20288;-60
2022/04/28 07:36:25;;;;;;;2.17;1.65;;;;;;;;;;5048278;28;20693;-60
2022/04/28 07:39:12;;;;;;;1.90;1.80;;;;;;;;;;5053760;28;20630;-59
2022/04/28 07:41:59;;;;;;;1.83;1.73;;;;;;;;;;5051069;28;20303;-60
2022/04/28 07:44:46;;;;;;;1.33;1.33;;;;;;;;;;5050796;28;20269;-60
2022/04/28 07:47:33;;;;;;;1.77;1.67;;;;;;;;;;5053741;28;20243;-59
2022/04/28 07:50:22;;;;;;;1.50;1.48;;;;;;;;;;5047905;28;20357;-60
2022/04/28 07:53:09;;;;;;;1.67;1.58;;;;;;;;;;5048751;28;20224;-60
2022/04/28 07:56:13;;;;;;;1.63;1.52;;;;;;;;;;5051126;28;20207;-60
2022/04/28 07:59:00;;;;;;;1.65;1.55;;;;;;;;;;5049003;28;20215;-60
2022/04/28 08:01:47;;;;;;;1.33;1.23;;;;;;;;;;5049946;28;20288;-59
2022/04/28 08:04:34;;;;;;;1.75;1.65;;;;;;;;;;5051041;28;20213;-60
2022/04/28 08:07:23;;;;;;;1.92;1.83;;;;;;;;;;5056772;28;20602;-59
2022/04/28 08:10:10;;;;;;;1.55;1.45;;;;;;;;;;5048682;28;20335;-60
2022/04/28 08:12:57;;;;;;;1.60;1.48;;;;;;;;;;5047895;28;20354;-60
2022/04/28 08:15:44;;;;;;;1.38;1.35;;;;;;;;;;5047067;28;20207;-60
2022/04/28 08:18:31;;;;;;;1.90;1.60;;;;;;;;;;5049556;28;20292;-60
2022/04/28 08:21:18;;;;;;;1.48;1.38;;;;;;;;;;5049468;28;20687;-60
2022/04/28 08:24:06;;;;;;;1.40;1.30;;;;;;;;;;5053546;28;20296;-60
2022/04/28 08:26:54;;;;;;;2.17;1.60;;;;;;;;;;5049793;28;20294;-60
2022/04/28 08:29:41;;;;;;;1.40;1.30;;;;;;;;;;5048252;28;20725;-60
2022/04/28 08:32:28;;;;;;;1.30;1.20;;;;;;;;;;5046146;28;20694;-59
2022/04/28 08:35:15;;;;;;;1.10;1.00;;;;;;;;;;5046360;28;20625;-60
2022/04/28 08:38:02;;;;;;;1.33;1.30;;;;;;;;;;5057929;28;20204;-59
2022/04/28 08:40:55;;;;;;;1.27;1.20;;;;;;;;;;5048341;28;20337;-59
2022/04/28 08:43:43;;;;;;;0.90;0.85;;;;;;;;;;5049881;28;20269;-59
2022/04/28 08:49:36;;;;;;;1.40;1.30;;;;;;;;;;5026463;28;20236;-60
2022/04/28 08:52:25;;;;;;;1.60;1.00;;;;;;;;;;5026511;28;20704;-60
2022/04/28 08:55:14;;;;;;;1.55;1.17;;;;;;;;;;5031681;28;20313;-59
2022/04/28 08:58:02;;;;;;;1.05;1.00;;;;;;;;;;5029014;28;20208;-60
2022/04/28 09:00:49;;;;;;;0.93;0.93;;;;;;;;;;5028884;28;20223;-60
2022/04/28 09:03:36;;;;;;;1.83;1.23;;;;;;;;;;5030648;28;20260;-61
2022/04/28 09:06:24;;;;;;;1.40;1.30;;;;;;;;;;5028044;28;20677;-60
2022/04/28 09:09:12;;;;;;;3.42;1.30;;;;;;;;;;5029717;28;20721;-60
2022/04/28 09:12:00;;;;;;;2.40;1.17;;;;;;;;;;5026503;28;20966;-61
2022/04/28 09:14:48;;;;;;;1.27;1.17;;;;;;;;;;5027658;28;20238;-61
2022/04/28 09:17:41;;;;;;;0.98;0.98;;;;;;;;;;5034052;28;20313;-61
2022/04/28 09:20:28;;;;;;;0.90;0.90;;;;;;;;;;5035351;28;20208;-60
2022/04/28 09:23:17;;;;;;;1.20;1.08;;;;;;;;;;5033653;28;20582;-60
2022/04/28 09:26:05;;;;;;;1.20;1.10;;;;;;;;;;5030290;28;20715;-60
2022/04/28 09:28:53;;;;;;;1.67;1.30;;;;;;;;;;5033402;28;20232;-61
2022/04/28 09:31:43;;;;;;;1.48;1.08;;;;;;;;;;5033654;28;20212;-60
2022/04/28 09:34:30;;;;;;;1.40;1.30;;;;;;;;;;5030171;28;20221;-60
2022/04/28 09:37:20;;;;;;;1.90;1.20;;;;;;;;;;5032880;28;20677;-59
2022/04/28 09:43:12;;;;;;;1.40;1.00;;;;;;;;;;5032597;28;20211;-60
2022/04/28 09:46:00;;;;;;;1.20;1.10;;;;;;;;;;5035600;28;20308;-61
2022/04/28 09:48:50;;;;;;;2.40;1.10;;;;;;;;;;5053276;28;20672;-60
2022/04/28 09:51:39;;;;;;;2.03;1.20;;;;;;;;;;5050887;28;20208;-61
2022/04/28 09:54:30;;;;;;;1.35;1.17;;;;;;;;;;5052606;28;20227;-61
2022/04/28 09:57:20;;;;;;;1.27;1.17;;;;;;;;;;5051726;28;20332;-59
2022/04/28 10:00:08;;;;;;;1.20;1.10;;;;;;;;;;5050995;28;20213;-60
2022/04/28 10:02:56;;;;;;;1.73;1.10;;;;;;;;;;5050877;28;20284;-60
2022/04/28 10:05:45;;;;;;;2.42;1.20;;;;;;;;;;5054834;28;20261;-60
2022/04/28 10:08:33;;;;;;;1.70;1.45;;;;;;;;;;5050886;28;20281;-60
2022/04/28 10:11:24;;;;;;;2.08;0.98;;;;;;;;;;5050607;28;20212;-60
2022/04/28 10:14:14;;;;;;;1.95;1.25;;;;;;;;;;5049879;28;20554;-61
2022/04/28 10:17:02;;;;;;;1.05;0.85;;;;;;;;;;5050873;28;20302;-60
2022/04/28 10:19:53;;;;;;;2.37;1.23;;;;;;;;;;5049694;28;20288;-59
2022/04/28 10:22:43;;;;;;;2.33;1.10;;;;;;;;;;5050796;28;20294;-59
2022/04/28 10:35:04;;;;;;;1.63;1.30;;;;;;;;;;5050298;28;20643;-58
2022/04/28 10:37:52;;;;;;;1.30;1.20;;;;;;;;;;5051368;28;20682;-61
2022/04/28 10:40:41;;;;;;;1.58;1.27;;;;;;;;;;5050307;28;20717;-61
2022/04/28 10:43:36;;;;;;;1.52;1.35;;;;;;;;;;5050729;28;20222;-60
2022/04/28 10:46:33;;;;;;;1.50;1.30;;;;;;;;;;5049163;28;20733;-60
2022/04/28 10:49:25;;;;;;;2.33;1.33;;;;;;;;;;5050801;28;20229;-61
2022/04/28 10:52:22;;;;;;;1.37;1.27;;;;;;;;;;5051685;28;20268;-60
2022/04/28 10:55:14;;;;;;;1.95;1.23;;;;;;;;;;5049188;28;20290;-60
2022/04/28 10:58:19;;;;;;;3.35;1.23;;;;;;;;;;5053807;28;20206;-60
2022/04/28 11:01:07;;;;;;;1.73;1.45;;;;;;;;;;5032977;28;20758;-60
2022/04/28 11:03:56;;;;;;;1.27;1.17;;;;;;;;;;5030754;28;20215;-61
2022/04/28 11:06:51;;;;;;;1.48;1.15;;;;;;;;;;5032745;28;20218;-61
2022/04/28 11:09:39;;;;;;;1.13;0.90;;;;;;;;;;5030215;28;20723;-60
2022/04/28 11:12:36;;;;;;;1.40;1.00;;;;;;;;;;5030746;28;20307;-61
2022/04/28 11:15:25;;;;;;;1.67;1.38;;;;;;;;;;5029424;28;20302;-60
2022/04/28 11:18:14;;;;;;;2.97;1.38;;;;;;;;;;5034438;28;20583;-61
2022/04/28 11:21:02;;;;;;;2.00;1.50;;;;;;;;;;5032563;28;20203;-61
2022/04/28 11:23:51;;;;;;;1.45;1.35;;;;;;;;;;5030481;28;20263;-61
2022/04/28 11:26:38;;;;;;;2.58;1.33;;;;;;;;;;5033193;28;20683;-60
2022/04/28 11:29:28;;;;;;;2.00;1.35;;;;;;;;;;5030313;28;20367;-61
2022/04/28 11:32:16;;;;;;;1.48;1.27;;;;;;;;;;5036403;28;20206;-62
2022/04/28 11:35:03;;;;;;;2.60;1.25;;;;;;;;;;5028657;28;20207;-61
2022/04/28 11:37:55;;;;;;;1.90;1.30;;;;;;;;;;5033287;28;20230;-62
2022/04/28 11:40:44;;;;;;;1.40;1.30;;;;;;;;;;5029784;28;20211;-61
2022/04/28 11:43:34;;;;;;;1.45;1.35;;;;;;;;;;5035724;28;20217;-61
2022/04/28 11:46:22;;;;;;;2.08;1.40;;;;;;;;;;5030296;28;20245;-60
2022/04/28 11:49:09;;;;;;;1.43;1.30;;;;;;;;;;5030677;28;20229;-60
2022/04/28 11:51:57;;;;;;;2.17;1.30;;;;;;;;;;5029785;28;20245;-60
2022/04/28 11:54:44;;;;;;;1.37;1.10;;;;;;;;;;5030375;28;20294;-61
2022/04/28 11:57:31;;;;;;;1.10;0.90;;;;;;;;;;5035593;28;20229;-60
2022/04/28 12:00:19;;;;;;;1.80;1.40;;;;;;;;;;5030350;28;21027;-60
2022/04/28 12:03:08;;;;;;;1.10;1.00;;;;;;;;;;5030859;28;20206;-61
2022/04/28 12:05:56;;;;;;;1.77;1.40;;;;;;;;;;5029220;28;20229;-60
2022/04/28 12:08:48;;;;;;;1.47;1.37;;;;;;;;;;5033636;28;20210;-60
2022/04/28 12:14:42;;;;;;;2.43;1.53;;;;;;;;;;5030927;28;20213;-60
2022/04/28 12:20:36;;;;;;;1.67;1.57;;;;;;;;;;5029868;28;20200;-61
2022/04/28 12:23:30;;;;;;;2.40;1.67;;;;;;;;;;5028311;28;20250;-61
2022/04/28 12:26:20;;;;;;;2.47;1.60;;;;;;;;;;5029314;28;20213;-60
2022/04/28 12:29:08;;;;;;;1.93;1.73;;;;;;;;;;5028027;28;20884;-61
2022/04/28 12:31:56;;;;;;;2.73;1.90;;;;;;;;;;5030378;28;20654;-60
2022/04/28 12:34:43;;;;;;;2.77;2.03;;;;;;;;;;5028788;28;20226;-61
2022/04/28 12:37:31;;;;;;;3.23;2.10;;;;;;;;;;5029527;28;20262;-60
2022/04/28 12:40:19;;;;;;;1.80;1.47;;;;;;;;;;5027111;28;20244;-60
2022/04/28 12:43:07;;;;;;;3.47;1.97;;;;;;;;;;5033030;28;20217;-60
2022/04/28 12:45:56;;;;;;;2.70;1.77;;;;;;;;;;5032082;28;20244;-61
2022/04/28 12:48:45;;;;;;;2.33;1.80;;;;;;;;;;5030534;28;20337;-64
2022/04/28 12:51:42;;;;;;;3.00;2.03;;;;;;;;;;5039122;28;20231;-61
2022/04/28 12:54:36;;;;;;;2.77;1.93;;;;;;;;;;5028779;28;20213;-61
2022/04/28 12:57:23;;;;;;;2.20;1.63;;;;;;;;;;5034970;28;20212;-61
2022/04/28 13:00:11;;;;;;;2.43;1.70;;;;;;;;;;5031578;28;20202;-60
2022/04/28 13:02:58;;;;;;;2.60;1.60;;;;;;;;;;5035219;28;20209;-61
2022/04/28 13:05:45;;;;;;;2.43;2.00;;;;;;;;;;5037542;28;20227;-59
2022/04/28 13:08:32;;;;;;;2.73;2.10;;;;;;;;;;5034665;28;20245;-60
2022/04/28 13:11:24;;;;;;;2.27;2.00;;;;;;;;;;5032523;28;20870;-60
2022/04/28 13:14:12;;;;;;;2.33;1.93;;;;;;;;;;5033423;28;20384;-60
2022/04/28 13:16:59;;;;;;;2.10;1.73;;;;;;;;;;5032789;28;20300;-60
2022/04/28 13:19:46;;;;;;;2.63;1.87;;;;;;;;;;5032818;28;20216;-60
2022/04/28 13:22:33;;;;;;;2.47;1.87;;;;;;;;;;5040504;28;20281;-60
2022/04/28 13:25:20;;;;;;;1.97;1.70;;;;;;;;;;5032048;28;20302;-61
2022/04/28 13:28:09;;;;;;;2.57;2.00;;;;;;;;;;5032098;28;20208;-60
2022/04/28 13:30:56;;;;;;;2.13;1.73;;;;;;;;;;5034251;28;20626;-61
2022/04/28 13:33:44;;;;;;;2.33;1.90;;;;;;;;;;5035492;28;20292;-61
2022/04/28 13:36:31;;;;;;;1.87;1.47;;;;;;;;;;5031533;28;20296;-61
2022/04/28 13:39:19;;;;;;;2.13;1.80;;;;;;;;;;5032315;28;20259;-60
2022/04/28 13:42:06;;;;;;;1.97;1.87;;;;;;;;;;5036304;28;20734;-61
2022/04/28 13:44:54;;;;;;;1.90;1.70;;;;;;;;;;5032156;28;20223;-62
2022/04/28 13:47:41;;;;;;;2.03;1.90;;;;;;;;;;5020997;28;20711;-61
2022/04/28 13:50:28;;;;;;;1.77;1.67;;;;;;;;;;5017365;28;20224;-61
2022/04/28 13:53:17;;;;;;;2.13;1.83;;;;;;;;;;5023631;28;20229;-61
2022/04/28 13:56:06;;;;;;;2.00;1.63;;;;;;;;;;5020677;28;20584;-61
2022/04/28 13:58:53;;;;;;;1.57;1.40;;;;;;;;;;5020049;28;20296;-62
2022/04/28 14:01:41;;;;;;;1.80;1.70;;;;;;;;;;5013835;28;20593;-61
2022/04/28 14:04:28;;;;;;;1.70;1.60;;;;;;;;;;5020204;28;20279;-65
2022/04/28 14:07:15;;;;;;;1.60;1.50;;;;;;;;;;5021920;28;20208;-61
2022/04/28 14:10:02;;;;;;;1.53;1.43;;;;;;;;;;5020326;28;20212;-59
2022/04/28 14:12:49;;;;;;;1.90;1.80;;;;;;;;;;5018169;28;20211;-61
2022/04/28 14:15:36;;;;;;;2.90;1.90;;;;;;;;;;5016577;28;20684;-61
2022/04/28 14:18:25;;;;;;;1.90;1.80;;;;;;;;;;5018284;28;20264;-61
2022/04/28 14:21:13;;;;;;;1.97;1.77;;;;;;;;;;5016684;28;20638;-60
2022/04/28 14:24:00;;;;;;;1.67;1.57;;;;;;;;;;5016375;28;20297;-61
2022/04/28 14:26:48;;;;;;;1.60;1.50;;;;;;;;;;5015380;28;20234;-61
2022/04/28 14:29:35;;;;;;;3.30;1.70;;;;;;;;;;5022875;28;20206;-61
2022/04/28 14:32:22;;;;;;;2.00;1.90;;;;;;;;;;5017725;28;20244;-61
2022/04/28 14:35:12;;;;;;;1.70;1.60;;;;;;;;;;5015079;28;20288;-61
2022/04/28 14:37:59;;;;;;;1.97;1.43;;;;;;;;;;5017757;28;20213;-61
2022/04/28 14:40:46;;;;;;;1.60;1.50;;;;;;;;;;5017662;28;20307;-60
2022/04/28 14:43:33;;;;;;;1.77;1.67;;;;;;;;;;5017858;28;20206;-61
2022/04/28 14:46:20;;;;;;;1.73;1.63;;;;;;;;;;5025984;28;20371;-61
2022/04/28 14:52:23;;;;;;;1.70;1.60;;;;;;;;;;5033310;28;20477;-60
2022/04/28 14:55:11;;;;;;;2.90;1.60;;;;;;;;;;5029905;28;20200;-61
2022/04/28 14:58:06;;;;;;;1.57;1.27;;;;;;;;;;5033595;28;20221;-60
2022/04/28 15:00:53;;;;;;;1.40;1.30;;;;;;;;;;5031176;28;20342;-61
2022/04/28 15:03:43;;;;;;;1.70;1.50;;;;;;;;;;5035945;28;20289;-61
2022/04/28 15:06:30;;;;;;;1.30;1.20;;;;;;;;;;5032607;28;20205;-61
2022/04/28 15:09:18;;;;;;;1.23;1.23;;;;;;;;;;5032218;28;20338;-60
2022/04/28 15:12:06;;;;;;;1.43;1.33;;;;;;;;;;5038846;28;20267;-61
2022/04/28 15:14:53;;;;;;;1.07;1.03;;;;;;;;;;5033216;28;20239;-61
2022/04/28 15:17:40;;;;;;;1.00;1.00;;;;;;;;;;5035139;28;20708;-61
2022/04/28 15:20:27;;;;;;;1.27;1.20;;;;;;;;;;5031198;28;20345;-62
2022/04/28 15:23:14;;;;;;;1.20;1.10;;;;;;;;;;5033521;28;20284;-61
2022/04/28 15:26:03;;;;;;;1.43;1.33;;;;;;;;;;5033924;28;20571;-61
2022/04/28 15:28:50;;;;;;;1.20;1.20;;;;;;;;;;5036757;28;20326;-61
2022/04/28 15:31:39;;;;;;;2.40;1.07;;;;;;;;;;5032474;28;20276;-61
2022/04/28 15:34:26;;;;;;;1.00;1.00;;;;;;;;;;5036172;28;20273;-61
2022/04/28 15:37:15;;;;;;;0.90;0.90;;;;;;;;;;5032414;28;20573;-61
2022/04/28 15:40:04;;;;;;;0.70;0.70;;;;;;;;;;5029785;28;20211;-60
2022/04/28 15:42:52;;;;;;;1.00;1.00;;;;;;;;;;5037235;28;20633;-60
2022/04/28 15:45:39;;;;;;;0.90;0.90;;;;;;;;;;5030341;28;20296;-61
2022/04/28 15:48:26;;;;;;;0.90;0.90;;;;;;;;;;5032350;28;20214;-61
2022/04/28 15:51:13;;;;;;;0.83;0.80;;;;;;;;;;5031275;28;20718;-61
2022/04/28 15:54:02;;;;;;;0.90;0.90;;;;;;;;;;5040189;28;20260;-61
2022/04/28 15:56:49;;;;;;;1.17;1.00;;;;;;;;;;5031786;28;20210;-62
2022/04/28 15:59:38;;;;;;;1.23;0.80;;;;;;;;;;5030026;28;20728;-60
2022/04/28 16:02:25;;;;;;;0.70;0.70;;;;;;;;;;5032732;28;20206;-61
2022/04/28 16:05:13;;;;;;;0.87;0.87;;;;;;;;;;5031092;28;20291;-60
2022/04/28 16:08:00;;;;;;;0.70;0.70;;;;;;;;;;5029014;28;20213;-60
2022/04/28 16:10:47;;;;;;;0.80;0.80;;;;;;;;;;5031550;28;20225;-60
2022/04/28 16:13:34;;;;;;;1.00;1.00;;;;;;;;;;5035765;28;20484;-61
2022/04/28 16:16:23;;;;;;;1.40;1.30;;;;;;;;;;5032157;28;20216;-61
2022/04/28 16:19:10;;;;;;;1.00;1.00;;;;;;;;;;5032182;28;20274;-61
2022/04/28 16:21:57;;;;;;;1.80;1.27;;;;;;;;;;5029169;28;20290;-61
2022/04/28 16:24:44;;;;;;;1.30;1.30;;;;;;;;;;5031062;28;20682;-63
2022/04/28 16:27:32;;;;;;;1.40;1.40;;;;;;;;;;5032355;28;20262;-61
2022/04/28 16:30:19;;;;;;;1.63;1.57;;;;;;;;;;5031985;28;20212;-62
2022/04/28 16:33:08;;;;;;;1.30;1.30;;;;;;;;;;5030856;28;20240;-62
2022/04/28 16:35:55;;;;;;;1.83;1.73;;;;;;;;;;5030847;28;20246;-61
2022/04/28 16:38:42;;;;;;;1.70;1.60;;;;;;;;;;5030075;28;21197;-61
2022/04/28 16:41:29;;;;;;;1.50;1.40;;;;;;;;;;5031042;28;20693;-62
2022/04/28 16:44:16;;;;;;;1.47;1.47;;;;;;;;;;5030169;28;20308;-61
2022/04/28 16:47:04;;;;;;;1.53;1.53;;;;;;;;;;5029888;28;20327;-61
2022/04/28 16:49:52;;;;;;;1.27;1.27;;;;;;;;;;5030071;28;20208;-61
2022/04/28 16:52:40;;;;;;;1.97;1.87;;;;;;;;;;5030456;28;20600;-60
2022/04/28 16:55:27;;;;;;;1.70;1.60;;;;;;;;;;5029294;28;20219;-62
2022/04/28 16:58:14;;;;;;;1.90;1.80;;;;;;;;;;5031157;28;20565;-61
2022/04/28 17:01:01;;;;;;;1.30;1.30;;;;;;;;;;5029541;28;20333;-60
2022/04/28 17:07:09;;;;;;;1.90;1.80;;;;;;;;;;4951465;28;20206;-62
2022/04/28 17:09:56;;;;;;;2.03;1.93;;;;;;;;;;4953991;28;20256;-62
2022/04/28 17:12:43;;;;;;;1.80;1.70;;;;;;;;;;5017999;28;20742;-62
2022/04/28 17:15:30;;;;;;;2.00;1.87;;;;;;;;;;5031624;28;20222;-62
2022/04/28 17:18:17;;;;;;;1.77;1.67;;;;;;;;;;5028642;28;20297;-60
2022/04/28 17:21:04;;;;;;;2.30;1.50;;;;;;;;;;5030296;28;20296;-63
2022/04/28 17:23:52;;;;;;;1.80;1.70;;;;;;;;;;5028513;28;20208;-61
2022/04/28 17:26:41;;;;;;;1.40;1.40;;;;;;;;;;5028251;28;20213;-62
2022/04/28 17:29:28;;;;;;;1.40;1.40;;;;;;;;;;5033137;28;20289;-61
2022/04/28 17:32:15;;;;;;;1.30;1.30;;;;;;;;;;5030211;28;20432;-62
2022/04/28 17:35:02;;;;;;;1.27;1.27;;;;;;;;;;5028833;28;20637;-60
2022/04/28 17:37:49;;;;;;;1.17;1.17;;;;;;;;;;5029245;28;20301;-62